Cedarville, California
Current Conditions -  °F | °C
As of 11:55 PM on Monday 20 Oct 2014 (Local Time) from KAAT Reporting Station
Overcast Overcast  
Wind Chill: 37°   Ceiling: 6000
Heat Index: 40°   Visibility: 10mi
Dew Point: 38°   Wind: 5mph
Humidity: 93%   Direction: 160°SSE
Pressure: 29.98"   Gusts: NA
Location:  41.53°N, 120.18°W
Report Text: KAAT 210655Z AUTO 16004KT 10SM OVC060 04/03 A2998 RMK AO2 RAB17E46 SLP132 P0000 T00440033 $
Loading
Personal Weather Stations






























Interactive Weather Map
Tropical Storm Tracking
New forecast layout! Learn more

10-Day Weather Forecast

Advertisements
Track Severe Weather on mobile